Time;durP1;ratioP1;P1;durP2;ratioP2;P2;SDS_P1;SDS_P2;PMS_P1;PMS_P2;Temp;Humidity;BMP_temperature;BMP_pressure;BME280_temperature;BME280_humidity;BME280_pressure;Samples;Min_cycle;Max_cycle;Signal;HPM_P1;HPM_P2
2021/12/13 00:01:24;;;;;;;95.93;40.58;;;;;;;;;;5025835;28;20055;-33
2021/12/13 00:04:00;;;;;;;93.22;38.40;;;;;;;;;;5032237;28;20045;-34
2021/12/13 00:06:30;;;;;;;104.18;39.17;;;;;;;;;;5050156;28;20045;-35
2021/12/13 00:08:57;;;;;;;97.10;39.50;;;;;;;;;;5050631;28;20165;-34
2021/12/13 00:11:25;;;;;;;101.25;38.85;;;;;;;;;;5050310;28;20044;-34
2021/12/13 00:13:53;;;;;;;89.88;38.22;;;;;;;;;;5050404;28;20036;-33
2021/12/13 00:16:31;;;;;;;92.88;38.03;;;;;;;;;;5050365;28;20123;-33
2021/12/13 00:19:00;;;;;;;91.20;38.88;;;;;;;;;;5050263;28;20041;-34
2021/12/13 00:21:33;;;;;;;105.55;39.80;;;;;;;;;;5049811;28;20126;-33
2021/12/13 00:24:01;;;;;;;94.40;38.85;;;;;;;;;;5050424;28;20055;-33
2021/12/13 00:26:31;;;;;;;91.40;37.85;;;;;;;;;;5041916;28;20065;-33
2021/12/13 00:28:58;;;;;;;92.88;37.70;;;;;;;;;;5030049;28;20120;-34
2021/12/13 00:31:35;;;;;;;99.13;40.17;;;;;;;;;;5030318;28;20045;-32
2021/12/13 00:34:19;;;;;;;101.40;38.50;;;;;;;;;;5029398;28;20037;-32
2021/12/13 00:36:48;;;;;;;100.47;39.72;;;;;;;;;;5029870;28;20068;-32
2021/12/13 00:39:14;;;;;;;82.78;36.28;;;;;;;;;;5030236;28;20443;-32
2021/12/13 00:41:41;;;;;;;91.30;36.75;;;;;;;;;;5030323;28;20116;-32
2021/12/13 00:44:11;;;;;;;74.68;34.58;;;;;;;;;;5029867;28;20504;-35
2021/12/13 00:46:39;;;;;;;87.85;36.75;;;;;;;;;;5026083;28;20042;-33
2021/12/13 00:49:08;;;;;;;79.13;35.33;;;;;;;;;;5010394;28;20093;-32
2021/12/13 00:51:37;;;;;;;83.45;34.75;;;;;;;;;;5014495;28;20040;-32
2021/12/13 00:54:11;;;;;;;82.93;35.95;;;;;;;;;;5029857;28;20093;-33
2021/12/13 00:56:56;;;;;;;75.78;33.72;;;;;;;;;;5029933;28;20045;-35
2021/12/13 00:59:24;;;;;;;77.43;36.95;;;;;;;;;;5029782;28;20049;-32
2021/12/13 01:02:10;;;;;;;81.43;34.80;;;;;;;;;;5029960;28;20052;-33
2021/12/13 01:04:52;;;;;;;74.47;34.40;;;;;;;;;;5029154;28;20084;-34
2021/12/13 01:07:33;;;;;;;80.50;35.78;;;;;;;;;;5029925;28;20622;-33
2021/12/13 01:10:08;;;;;;;89.78;36.08;;;;;;;;;;5029389;28;20123;-32
2021/12/13 01:12:35;;;;;;;81.80;36.45;;;;;;;;;;5029815;28;20536;-31
2021/12/13 01:15:15;;;;;;;79.25;35.30;;;;;;;;;;5029767;28;20037;-33
2021/12/13 01:20:41;;;;;;;71.60;33.20;;;;;;;;;;5021657;28;20085;-32
2021/12/13 01:23:17;;;;;;;75.25;33.17;;;;;;;;;;5009809;28;20104;-34
2021/12/13 01:26:03;;;;;;;71.35;33.72;;;;;;;;;;5009934;28;20049;-32
2021/12/13 01:28:33;;;;;;;68.70;33.15;;;;;;;;;;5010269;28;20538;-31
2021/12/13 01:31:17;;;;;;;75.15;32.75;;;;;;;;;;5012562;28;20049;-33
2021/12/13 01:33:45;;;;;;;72.63;31.75;;;;;;;;;;5012142;28;20048;-32
2021/12/13 01:36:14;;;;;;;72.95;32.90;;;;;;;;;;5029135;28;20060;-32
2021/12/13 01:38:47;;;;;;;72.60;31.58;;;;;;;;;;5029378;28;20076;-34
2021/12/13 01:41:16;;;;;;;66.75;29.65;;;;;;;;;;5029213;28;20052;-33
2021/12/13 01:43:44;;;;;;;69.50;31.00;;;;;;;;;;5028942;28;20095;-34
2021/12/13 01:46:10;;;;;;;64.05;29.60;;;;;;;;;;5028396;28;20042;-33
2021/12/13 01:48:38;;;;;;;59.90;26.88;;;;;;;;;;5012604;28;20046;-34
2021/12/13 01:51:07;;;;;;;55.97;27.92;;;;;;;;;;5013061;28;20403;-32
2021/12/13 01:53:41;;;;;;;59.83;26.65;;;;;;;;;;5012333;28;20045;-34
2021/12/13 01:56:23;;;;;;;49.75;25.45;;;;;;;;;;5013127;28;20094;-34
2021/12/13 01:58:49;;;;;;;52.75;25.42;;;;;;;;;;5012739;28;20053;-33
2021/12/13 02:01:19;;;;;;;45.08;22.73;;;;;;;;;;5013246;28;20053;-35
2021/12/13 02:04:03;;;;;;;41.58;22.25;;;;;;;;;;5033098;28;20037;-29
2021/12/13 02:06:29;;;;;;;38.63;21.65;;;;;;;;;;5030915;28;20044;-31
2021/12/13 02:08:57;;;;;;;38.10;21.60;;;;;;;;;;5030115;28;20037;-31
2021/12/13 02:11:24;;;;;;;39.38;21.73;;;;;;;;;;5009041;28;20145;-31
2021/12/13 02:14:09;;;;;;;35.55;20.67;;;;;;;;;;5033642;23;20043;-85
2021/12/13 02:16:57;;;;;;;33.47;19.92;;;;;;;;;;5028034;28;20064;-85
2021/12/13 02:19:32;;;;;;;34.33;20.05;;;;;;;;;;5040535;28;20493;-85
2021/12/13 02:22:33;;;;;;;36.25;19.88;;;;;;;;;;5051755;28;20040;-85
2021/12/13 02:25:30;;;;;;;39.15;21.38;;;;;;;;;;5029989;28;20410;-85
2021/12/13 02:28:11;;;;;;;38.00;21.20;;;;;;;;;;5047834;28;20047;-85
2021/12/13 02:30:55;;;;;;;39.65;22.20;;;;;;;;;;5046628;28;20128;-84
2021/12/13 02:33:24;;;;;;;39.75;22.42;;;;;;;;;;5049671;28;20039;-84
2021/12/13 02:36:03;;;;;;;40.13;22.02;;;;;;;;;;5033878;28;20040;-84
2021/12/13 02:38:30;;;;;;;40.85;23.65;;;;;;;;;;5043848;28;20033;-85
2021/12/13 02:40:58;;;;;;;37.63;21.75;;;;;;;;;;5039041;28;20036;-84
2021/12/13 02:43:29;;;;;;;42.20;23.50;;;;;;;;;;5052889;28;20037;-84
2021/12/13 02:45:58;;;;;;;42.88;23.33;;;;;;;;;;5055952;28;20042;-84
2021/12/13 02:48:45;;;;;;;43.70;24.13;;;;;;;;;;5054559;28;20032;-84
2021/12/13 02:51:29;;;;;;;40.15;22.25;;;;;;;;;;5029009;28;20395;-84
2021/12/13 02:53:58;;;;;;;37.85;21.70;;;;;;;;;;5041321;28;20037;-84
2021/12/13 02:56:26;;;;;;;34.75;21.88;;;;;;;;;;5039370;28;20043;-84
2021/12/13 02:58:54;;;;;;;36.70;21.50;;;;;;;;;;5050159;28;20372;-84
2021/12/13 03:01:23;;;;;;;38.78;23.00;;;;;;;;;;5053318;28;20098;-84
2021/12/13 03:03:51;;;;;;;37.45;22.13;;;;;;;;;;5054402;28;20049;-84
2021/12/13 03:06:21;;;;;;;31.27;21.23;;;;;;;;;;5039421;28;20048;-84
2021/12/13 03:08:50;;;;;;;33.17;21.48;;;;;;;;;;5031983;28;20052;-84
2021/12/13 03:11:28;;;;;;;36.15;21.70;;;;;;;;;;5033213;28;20128;-84
2021/12/13 03:13:57;;;;;;;33.38;21.17;;;;;;;;;;5022016;28;20044;-84
2021/12/13 03:16:25;;;;;;;33.22;20.58;;;;;;;;;;5053318;28;20047;-84
2021/12/13 03:19:03;;;;;;;30.98;20.55;;;;;;;;;;5050429;28;20051;-84
2021/12/13 03:21:29;;;;;;;30.90;19.67;;;;;;;;;;5054100;28;20495;-84
2021/12/13 03:24:04;;;;;;;28.92;18.60;;;;;;;;;;5041809;28;20043;-84
2021/12/13 03:26:49;;;;;;;26.83;17.75;;;;;;;;;;5038383;28;20041;-84
2021/12/13 03:29:28;;;;;;;25.00;16.77;;;;;;;;;;5056677;28;20094;-84
2021/12/13 03:31:57;;;;;;;26.25;16.98;;;;;;;;;;5047691;28;20032;-84
2021/12/13 03:34:25;;;;;;;24.40;16.25;;;;;;;;;;5045308;28;20044;-84
2021/12/13 03:37:00;;;;;;;20.27;15.00;;;;;;;;;;5048513;28;20041;-84
2021/12/13 03:39:30;;;;;;;22.85;15.13;;;;;;;;;;5053274;28;20037;-84
2021/12/13 03:41:57;;;;;;;22.83;13.98;;;;;;;;;;5025891;28;20048;-84
2021/12/13 03:44:26;;;;;;;20.95;13.30;;;;;;;;;;5054367;28;20045;-84
2021/12/13 03:46:54;;;;;;;19.40;12.73;;;;;;;;;;5041507;28;20192;-84
2021/12/13 03:49:24;;;;;;;16.88;13.23;;;;;;;;;;5032953;28;20033;-84
2021/12/13 03:51:56;;;;;;;18.50;12.10;;;;;;;;;;5043874;28;20043;-84
2021/12/13 03:54:25;;;;;;;21.27;12.38;;;;;;;;;;5031114;28;20055;-84
2021/12/13 03:56:51;;;;;;;22.23;12.57;;;;;;;;;;5053073;28;20045;-84
2021/12/13 03:59:20;;;;;;;18.13;11.05;;;;;;;;;;5049881;28;20131;-84
2021/12/13 04:01:52;;;;;;;20.33;11.80;;;;;;;;;;5042289;28;20519;-84
2021/12/13 04:04:27;;;;;;;31.20;17.27;;;;;;;;;;5041005;28;20106;-84
2021/12/13 04:06:59;;;;;;;72.63;35.50;;;;;;;;;;5040543;28;20097;-84
2021/12/13 04:09:25;;;;;;;62.50;33.72;;;;;;;;;;5045121;28;20491;-84
2021/12/13 04:11:56;;;;;;;32.92;17.75;;;;;;;;;;5038199;28;20090;-83
2021/12/13 04:14:26;;;;;;;31.75;17.52;;;;;;;;;;5038330;28;20071;-84
2021/12/13 04:17:09;;;;;;;41.88;23.33;;;;;;;;;;5041133;28;20048;-84
2021/12/13 04:19:44;;;;;;;52.00;28.45;;;;;;;;;;5051782;28;20048;-84
2021/12/13 04:22:11;;;;;;;75.40;37.72;;;;;;;;;;5045525;28;20470;-84
2021/12/13 04:24:40;;;;;;;48.33;27.42;;;;;;;;;;5029233;28;20424;-84
2021/12/13 04:27:30;;;;;;;20.15;13.77;;;;;;;;;;5023285;28;20080;-84
2021/12/13 04:29:59;;;;;;;17.95;11.10;;;;;;;;;;5019536;28;20053;-84
2021/12/13 04:32:34;;;;;;;18.70;12.20;;;;;;;;;;5027055;28;20069;-84
2021/12/13 04:35:03;;;;;;;19.83;12.63;;;;;;;;;;5041847;28;20084;-84
2021/12/13 04:37:31;;;;;;;19.42;12.52;;;;;;;;;;5036038;28;20040;-84
2021/12/13 04:40:01;;;;;;;19.08;12.18;;;;;;;;;;5018130;28;20123;-84
2021/12/13 04:42:28;;;;;;;17.38;11.43;;;;;;;;;;5036427;28;20044;-84
2021/12/13 04:45:15;;;;;;;17.48;11.15;;;;;;;;;;5018957;28;20488;-86
2021/12/13 04:47:48;;;;;;;18.58;11.25;;;;;;;;;;5027269;28;20120;-85
2021/12/13 04:50:19;;;;;;;16.70;11.52;;;;;;;;;;5033959;28;20051;-84
2021/12/13 04:52:46;;;;;;;16.70;11.15;;;;;;;;;;5036148;28;20036;-85
2021/12/13 04:55:15;;;;;;;16.58;11.30;;;;;;;;;;5041085;28;20551;-85
2021/12/13 04:57:42;;;;;;;17.25;11.15;;;;;;;;;;5063059;28;20051;-85
2021/12/13 05:00:11;;;;;;;15.68;10.48;;;;;;;;;;5055781;28;20020;-84
2021/12/13 05:02:39;;;;;;;14.50;10.63;;;;;;;;;;5062226;28;20033;-84
2021/12/13 05:05:21;;;;;;;14.35;10.07;;;;;;;;;;5022306;28;20041;-84
2021/12/13 05:07:57;;;;;;;19.27;12.30;;;;;;;;;;5049451;28;20460;-84
2021/12/13 05:10:25;;;;;;;21.88;13.32;;;;;;;;;;5046244;28;20487;-85
2021/12/13 05:13:03;;;;;;;18.75;11.50;;;;;;;;;;5053316;28;20048;-85
2021/12/13 05:15:30;;;;;;;15.75;10.23;;;;;;;;;;5028742;28;20028;-85
2021/12/13 05:17:58;;;;;;;19.50;11.98;;;;;;;;;;5037609;28;20041;-85
2021/12/13 05:20:32;;;;;;;19.02;10.68;;;;;;;;;;5041623;28;20036;-85
2021/12/13 05:23:05;;;;;;;21.42;13.88;;;;;;;;;;5049391;28;20503;-85
2021/12/13 05:25:45;;;;;;;19.23;12.03;;;;;;;;;;5063635;28;20101;-85
2021/12/13 05:28:25;;;;;;;20.45;12.18;;;;;;;;;;5059331;28;20051;-84
2021/12/13 05:31:00;;;;;;;18.35;12.23;;;;;;;;;;5056912;28;20048;-84
2021/12/13 05:33:28;;;;;;;21.10;12.73;;;;;;;;;;5050657;28;20048;-84
2021/12/13 05:35:56;;;;;;;22.08;13.93;;;;;;;;;;5050537;28;20049;-85
2021/12/13 05:38:37;;;;;;;23.52;13.95;;;;;;;;;;5050632;28;20041;-84
2021/12/13 05:41:07;;;;;;;20.35;13.57;;;;;;;;;;5049380;28;20079;-84
2021/12/13 05:43:37;;;;;;;22.23;13.90;;;;;;;;;;5050834;28;20048;-84
2021/12/13 05:46:05;;;;;;;22.48;14.63;;;;;;;;;;5055254;28;20044;-85
2021/12/13 05:48:34;;;;;;;23.00;14.85;;;;;;;;;;5043821;28;20065;-85
2021/12/13 05:51:02;;;;;;;25.13;15.15;;;;;;;;;;5032696;28;20029;-84
2021/12/13 05:53:33;;;;;;;22.77;15.63;;;;;;;;;;5024748;28;20037;-84
2021/12/13 05:56:10;;;;;;;23.13;15.82;;;;;;;;;;5042217;28;20570;-83
2021/12/13 05:58:47;;;;;;;26.20;15.98;;;;;;;;;;5050267;28;20041;-84
2021/12/13 06:01:23;;;;;;;24.38;16.30;;;;;;;;;;5030138;28;20068;-83
2021/12/13 06:04:08;;;;;;;24.80;15.38;;;;;;;;;;5052399;28;20053;-84
2021/12/13 06:06:46;;;;;;;31.10;17.42;;;;;;;;;;5052366;28;20041;-85
2021/12/13 06:09:32;;;;;;;27.60;17.08;;;;;;;;;;5048552;28;20127;-84
2021/12/13 06:12:03;;;;;;;28.08;16.30;;;;;;;;;;5040630;28;20044;-85
2021/12/13 06:14:29;;;;;;;29.13;17.98;;;;;;;;;;5053818;28;20032;-84
2021/12/13 06:17:07;;;;;;;30.98;18.20;;;;;;;;;;5049502;28;20065;-84
2021/12/13 06:19:46;;;;;;;33.85;21.20;;;;;;;;;;5049324;28;20067;-85
2021/12/13 06:22:20;;;;;;;31.70;20.13;;;;;;;;;;5033236;28;20040;-84
2021/12/13 06:24:53;;;;;;;33.75;21.65;;;;;;;;;;5035362;28;20055;-84
2021/12/13 06:27:21;;;;;;;32.15;20.27;;;;;;;;;;5059483;28;20448;-84
2021/12/13 06:29:53;;;;;;;35.20;21.42;;;;;;;;;;5064263;28;20100;-84
2021/12/13 06:32:22;;;;;;;37.53;22.63;;;;;;;;;;5047191;28;20039;-84
2021/12/13 06:34:48;;;;;;;42.47;24.13;;;;;;;;;;5058770;28;20048;-84
2021/12/13 06:37:28;;;;;;;41.65;24.88;;;;;;;;;;5067262;28;20040;-84
2021/12/13 06:40:10;;;;;;;48.70;27.67;;;;;;;;;;5063854;28;20040;-84
2021/12/13 06:42:36;;;;;;;45.17;28.65;;;;;;;;;;5066293;28;20040;-84
2021/12/13 06:45:02;;;;;;;36.97;24.10;;;;;;;;;;5060001;28;20044;-85
2021/12/13 06:47:28;;;;;;;41.50;24.23;;;;;;;;;;5049741;28;20601;-84
2021/12/13 06:49:57;;;;;;;40.47;25.50;;;;;;;;;;5055099;28;20055;-83
2021/12/13 06:52:29;;;;;;;39.63;26.55;;;;;;;;;;5070896;28;20031;-83
2021/12/13 06:54:57;;;;;;;39.88;25.40;;;;;;;;;;5048653;28;20043;-84
2021/12/13 06:57:23;;;;;;;43.10;24.88;;;;;;;;;;5057546;28;20040;-84
2021/12/13 06:59:52;;;;;;;44.97;26.77;;;;;;;;;;5062215;28;20042;-83
2021/12/13 07:02:20;;;;;;;44.97;27.00;;;;;;;;;;5043375;28;20093;-83
2021/12/13 07:04:49;;;;;;;46.17;27.77;;;;;;;;;;5051039;28;20431;-83
2021/12/13 07:07:15;;;;;;;44.15;26.60;;;;;;;;;;5063120;28;20036;-83
2021/12/13 07:09:49;;;;;;;45.45;26.05;;;;;;;;;;5051338;28;20130;-83
2021/12/13 07:12:16;;;;;;;48.90;28.27;;;;;;;;;;5058457;28;20052;-83
2021/12/13 07:14:42;;;;;;;43.58;26.52;;;;;;;;;;5064682;28;20154;-85
2021/12/13 07:17:29;;;;;;;41.83;26.83;;;;;;;;;;5049200;28;20503;-84
2021/12/13 07:19:55;;;;;;;44.40;27.40;;;;;;;;;;5038702;28;20484;-83
2021/12/13 07:22:28;;;;;;;43.20;25.98;;;;;;;;;;5060387;28;20040;-84
2021/12/13 07:25:10;;;;;;;42.13;26.00;;;;;;;;;;5058634;28;20119;-84
2021/12/13 07:27:41;;;;;;;42.70;26.23;;;;;;;;;;5043810;28;20071;-84
2021/12/13 07:30:19;;;;;;;41.13;25.77;;;;;;;;;;5059598;28;20037;-85
2021/12/13 07:32:52;;;;;;;39.15;26.50;;;;;;;;;;5049908;28;20038;-84
2021/12/13 07:35:37;;;;;;;43.42;26.55;;;;;;;;;;5046328;28;20118;-84
2021/12/13 07:38:03;;;;;;;40.72;25.23;;;;;;;;;;5058587;28;20040;-84
2021/12/13 07:40:41;;;;;;;44.88;26.00;;;;;;;;;;5046133;28;20606;-84
2021/12/13 07:43:12;;;;;;;40.63;25.38;;;;;;;;;;5064066;28;20040;-84
2021/12/13 07:45:45;;;;;;;44.28;27.70;;;;;;;;;;5059063;28;20551;-83
2021/12/13 07:48:22;;;;;;;46.27;27.60;;;;;;;;;;5060868;28;20604;-84
2021/12/13 07:51:07;;;;;;;45.85;26.80;;;;;;;;;;5064954;28;20051;-84
2021/12/13 07:53:39;;;;;;;43.05;27.10;;;;;;;;;;5064969;28;20059;-84
2021/12/13 07:56:05;;;;;;;45.97;27.27;;;;;;;;;;5049458;28;20029;-84
2021/12/13 07:58:34;;;;;;;41.10;25.88;;;;;;;;;;5055834;28;20078;-88
2021/12/13 08:01:29;;;;;;;48.78;31.95;;;;;;;;;;5028193;28;20191;-84
2021/12/13 08:03:58;;;;;;;44.67;28.45;;;;;;;;;;5040146;28;20076;-84
2021/12/13 08:06:43;;;;;;;40.30;25.85;;;;;;;;;;5039624;28;20033;-84
2021/12/13 08:09:25;;;;;;;42.90;27.17;;;;;;;;;;5076558;28;20040;-84
2021/12/13 08:12:34;;;;;;;41.25;25.42;;;;;;;;;;5054152;28;20046;-84
2021/12/13 08:15:18;;;;;;;45.92;27.20;;;;;;;;;;5048500;28;20567;-84
2021/12/13 08:17:46;;;;;;;40.92;26.45;;;;;;;;;;5051155;28;20052;-84
2021/12/13 08:20:18;;;;;;;42.03;26.85;;;;;;;;;;5046149;28;20103;-84
2021/12/13 08:22:49;;;;;;;41.80;25.75;;;;;;;;;;5062804;28;20069;-84
2021/12/13 08:25:21;;;;;;;40.80;25.58;;;;;;;;;;5046101;28;20042;-83
2021/12/13 08:27:53;;;;;;;41.60;25.58;;;;;;;;;;5034136;28;20614;-83
2021/12/13 08:30:34;;;;;;;41.20;25.67;;;;;;;;;;5048677;28;20040;-83
2021/12/13 08:33:03;;;;;;;39.22;25.48;;;;;;;;;;5067260;28;20037;-84
2021/12/13 08:35:53;;;;;;;39.90;25.88;;;;;;;;;;5051273;28;20032;-83
2021/12/13 08:38:40;;;;;;;40.63;26.20;;;;;;;;;;5047434;28;20099;-82
2021/12/13 08:41:27;;;;;;;37.85;24.63;;;;;;;;;;5038772;28;20075;-83
2021/12/13 08:44:12;;;;;;;38.65;24.20;;;;;;;;;;5062337;28;20056;-83
2021/12/13 08:46:41;;;;;;;41.10;25.50;;;;;;;;;;5074577;28;20036;-84
2021/12/13 08:49:13;;;;;;;43.15;25.92;;;;;;;;;;5053860;28;20048;-84
2021/12/13 08:55:31;;;;;;;37.30;23.48;;;;;;;;;;5067655;28;20035;-85
2021/12/13 08:57:57;;;;;;;38.72;24.17;;;;;;;;;;5038258;28;20044;-79
2021/12/13 09:00:42;;;;;;;40.65;25.65;;;;;;;;;;5032045;28;20041;-85
2021/12/13 09:03:22;;;;;;;39.38;24.67;;;;;;;;;;5046078;28;20040;-84
2021/12/13 09:05:57;;;;;;;37.05;24.63;;;;;;;;;;5034635;28;20044;-84
2021/12/13 09:08:37;;;;;;;40.08;25.25;;;;;;;;;;5036273;28;20091;-84
2021/12/13 09:11:41;;;;;;;;;;;;;;;;;;;;;
2021/12/13 09:14:57;;;;;;;40.15;24.23;;;;;;;;;;5071797;28;20040;-84
2021/12/13 09:17:57;;;;;;;37.13;24.08;;;;;;;;;;4978522;28;20073;-84
2021/12/13 09:20:29;;;;;;;37.88;24.83;;;;;;;;;;4989996;28;20128;-85
2021/12/13 09:23:20;;;;;;;34.33;23.33;;;;;;;;;;5024362;28;20056;-84
2021/12/13 09:25:47;;;;;;;37.92;23.10;;;;;;;;;;5020250;28;20055;-85
2021/12/13 09:28:21;;;;;;;37.67;23.80;;;;;;;;;;5025791;28;20033;-85
2021/12/13 09:30:56;;;;;;;41.40;27.17;;;;;;;;;;5029134;28;20103;-85
2021/12/13 09:33:40;;;;;;;36.63;24.15;;;;;;;;;;5036463;28;20037;-86
2021/12/13 09:36:21;;;;;;;36.10;24.02;;;;;;;;;;5048827;28;20403;-86
2021/12/13 09:38:54;;;;;;;32.88;22.10;;;;;;;;;;5056527;28;20055;-87
2021/12/13 09:41:27;;;;;;;40.00;23.08;;;;;;;;;;5053733;28;20044;-86
2021/12/13 09:44:17;;;;;;;40.78;23.60;;;;;;;;;;5049904;28;20094;-86
2021/12/13 09:46:49;;;;;;;33.72;22.17;;;;;;;;;;5051024;28;20086;-86
2021/12/13 09:49:30;;;;;;;30.85;21.45;;;;;;;;;;5042610;28;20029;-85
2021/12/13 09:52:07;;;;;;;32.80;21.00;;;;;;;;;;5022921;28;20045;-86
2021/12/13 09:54:37;;;;;;;29.33;20.75;;;;;;;;;;5049621;28;20555;-85
2021/12/13 09:57:07;;;;;;;31.90;22.58;;;;;;;;;;5032315;28;20072;-85
2021/12/13 09:59:48;;;;;;;31.33;20.92;;;;;;;;;;5050880;28;20079;-85
2021/12/13 10:02:25;;;;;;;32.88;21.95;;;;;;;;;;5045903;28;20244;-86
2021/12/13 10:04:51;;;;;;;33.00;20.63;;;;;;;;;;5039442;28;20036;-86
2021/12/13 10:07:21;;;;;;;33.47;20.55;;;;;;;;;;5034036;28;20045;-86
2021/12/13 10:09:50;;;;;;;36.22;22.23;;;;;;;;;;5035587;28;20029;-86
2021/12/13 10:12:20;;;;;;;30.90;20.40;;;;;;;;;;5040635;28;20385;-86
2021/12/13 10:14:48;;;;;;;31.42;21.30;;;;;;;;;;5039026;28;20094;-86
2021/12/13 10:17:15;;;;;;;31.35;20.02;;;;;;;;;;5049795;28;20047;-86
2021/12/13 10:19:48;;;;;;;29.20;19.55;;;;;;;;;;5037884;28;20400;-86
2021/12/13 10:22:16;;;;;;;31.92;19.23;;;;;;;;;;5064902;28;20049;-86
2021/12/13 10:24:54;;;;;;;28.40;19.33;;;;;;;;;;5031402;28;20037;-87
2021/12/13 10:27:22;;;;;;;26.70;18.38;;;;;;;;;;5023572;28;20033;-82
2021/12/13 10:29:50;;;;;;;31.25;20.33;;;;;;;;;;5064080;28;20063;-86
2021/12/13 10:32:24;;;;;;;28.05;19.90;;;;;;;;;;5071311;28;20071;-85
2021/12/13 10:34:52;;;;;;;28.45;19.17;;;;;;;;;;5023211;28;20033;-85
2021/12/13 10:37:20;;;;;;;26.88;19.00;;;;;;;;;;5050744;28;20041;-86
2021/12/13 10:39:48;;;;;;;32.60;18.52;;;;;;;;;;5044807;28;20571;-86
2021/12/13 10:42:16;;;;;;;24.70;17.10;;;;;;;;;;5055481;28;20047;-85
2021/12/13 10:44:44;;;;;;;26.15;17.30;;;;;;;;;;5040123;28;20095;-85
2021/12/13 10:47:14;;;;;;;22.95;17.10;;;;;;;;;;5057423;28;20036;-85
2021/12/13 10:49:42;;;;;;;27.63;18.05;;;;;;;;;;5032494;28;20099;-85
2021/12/13 10:52:10;;;;;;;26.30;17.65;;;;;;;;;;5043000;28;20512;-86
2021/12/13 10:54:51;;;;;;;25.92;17.95;;;;;;;;;;5027159;28;20037;-85
2021/12/13 10:57:20;;;;;;;28.38;18.60;;;;;;;;;;5030854;28;20391;-85
2021/12/13 10:59:48;;;;;;;25.02;16.95;;;;;;;;;;5026639;28;20372;-85
2021/12/13 11:02:16;;;;;;;24.55;16.98;;;;;;;;;;5031284;28;20048;-85
2021/12/13 11:04:48;;;;;;;27.08;18.42;;;;;;;;;;5029691;28;20518;-85
2021/12/13 11:07:15;;;;;;;26.83;18.13;;;;;;;;;;5050321;28;20056;-85
2021/12/13 11:09:42;;;;;;;24.65;17.27;;;;;;;;;;5050984;28;20044;-86
2021/12/13 11:12:14;;;;;;;23.10;17.13;;;;;;;;;;5051160;28;20087;-85
2021/12/13 11:14:42;;;;;;;25.85;16.95;;;;;;;;;;5052399;28;20048;-85
2021/12/13 11:17:10;;;;;;;23.30;16.30;;;;;;;;;;5033667;28;20049;-85
2021/12/13 11:19:39;;;;;;;23.40;17.05;;;;;;;;;;5052543;28;20036;-78
2021/12/13 11:22:10;;;;;;;24.77;17.35;;;;;;;;;;5069923;28;20269;-85
2021/12/13 11:24:39;;;;;;;24.60;17.67;;;;;;;;;;5049391;28;20048;-85
2021/12/13 11:27:08;;;;;;;24.73;16.50;;;;;;;;;;5036117;28;20071;-85
2021/12/13 11:29:36;;;;;;;24.00;18.90;;;;;;;;;;5033030;28;20036;-84
2021/12/13 11:32:06;;;;;;;25.42;17.52;;;;;;;;;;5029408;28;20503;-86
2021/12/13 11:34:51;;;;;;;23.67;17.10;;;;;;;;;;5031222;28;20041;-86
2021/12/13 11:37:36;;;;;;;26.90;17.48;;;;;;;;;;5029738;28;20037;-86
2021/12/13 11:40:32;;;;;;;23.35;16.80;;;;;;;;;;5055876;28;20032;-86
2021/12/13 11:43:17;;;;;;;27.67;18.70;;;;;;;;;;5064004;28;20046;-86
2021/12/13 11:46:02;;;;;;;25.83;18.58;;;;;;;;;;5065716;28;20192;-86
2021/12/13 11:48:37;;;;;;;26.88;18.83;;;;;;;;;;5064504;28;20048;-86
2021/12/13 11:51:43;;;;;;;24.85;17.73;;;;;;;;;;5048787;28;20040;-86
2021/12/13 11:54:12;;;;;;;24.77;17.83;;;;;;;;;;4978437;28;20099;-85
2021/12/13 11:56:47;;;;;;;31.13;18.65;;;;;;;;;;5079938;28;20048;-85
2021/12/13 11:59:32;;;;;;;26.65;16.67;;;;;;;;;;5035085;28;20049;-85
2021/12/13 12:02:01;;;;;;;26.52;18.13;;;;;;;;;;5054977;28;20522;-85
2021/12/13 12:04:46;;;;;;;28.23;17.60;;;;;;;;;;5046097;28;20127;-85
2021/12/13 12:07:14;;;;;;;28.85;18.55;;;;;;;;;;5058622;28;20040;-85
2021/12/13 12:09:56;;;;;;;25.55;18.58;;;;;;;;;;5069001;28;20040;-85
2021/12/13 12:12:41;;;;;;;23.98;17.67;;;;;;;;;;5048429;28;20047;-86
2021/12/13 12:15:09;;;;;;;25.27;17.88;;;;;;;;;;5046827;28;20055;-85
2021/12/13 12:17:35;;;;;;;27.80;17.30;;;;;;;;;;5048874;28;20124;-85
2021/12/13 12:20:01;;;;;;;24.65;17.10;;;;;;;;;;5055434;28;20047;-85
2021/12/13 12:22:43;;;;;;;23.73;17.08;;;;;;;;;;5075391;28;20083;-86
2021/12/13 12:25:09;;;;;;;25.25;17.33;;;;;;;;;;5077643;28;20028;-86
2021/12/13 12:27:36;;;;;;;30.95;19.45;;;;;;;;;;5040072;28;20063;-85
2021/12/13 12:30:28;;;;;;;25.73;16.90;;;;;;;;;;5033108;28;20029;-85
2021/12/13 12:32:56;;;;;;;26.45;16.35;;;;;;;;;;5016015;28;20095;-85
2021/12/13 12:35:28;;;;;;;23.33;16.23;;;;;;;;;;5028091;28;20045;-86
2021/12/13 12:38:02;;;;;;;27.05;17.42;;;;;;;;;;5020044;28;20068;-85
2021/12/13 12:40:49;;;;;;;24.65;17.23;;;;;;;;;;5043572;28;20115;-85
2021/12/13 12:43:23;;;;;;;23.95;16.48;;;;;;;;;;5018103;28;20051;-86
2021/12/13 12:46:00;;;;;;;25.02;17.42;;;;;;;;;;5021777;28;20494;-86
2021/12/13 12:48:28;;;;;;;22.23;16.55;;;;;;;;;;5046901;28;20076;-86
2021/12/13 12:51:00;;;;;;;24.10;16.80;;;;;;;;;;5062988;28;20020;-86
2021/12/13 12:53:29;;;;;;;23.95;16.20;;;;;;;;;;5037028;28;20503;-86
2021/12/13 12:55:59;;;;;;;24.38;16.52;;;;;;;;;;5030070;28;20082;-86
2021/12/13 12:58:30;;;;;;;21.58;16.25;;;;;;;;;;5031880;28;20120;-85
2021/12/13 13:01:00;;;;;;;26.35;16.70;;;;;;;;;;5028336;28;20045;-85
2021/12/13 13:03:35;;;;;;;22.25;15.60;;;;;;;;;;5033877;28;20421;-85
2021/12/13 13:06:11;;;;;;;24.10;16.05;;;;;;;;;;5045141;28;20072;-86
2021/12/13 13:08:41;;;;;;;27.27;17.27;;;;;;;;;;5048868;28;20041;-86
2021/12/13 13:11:27;;;;;;;22.40;15.93;;;;;;;;;;5030368;28;20404;-86
2021/12/13 13:14:02;;;;;;;23.67;16.20;;;;;;;;;;5022544;28;20037;-86
2021/12/13 13:16:36;;;;;;;26.98;20.08;;;;;;;;;;5039480;28;20549;-86
2021/12/13 13:19:03;;;;;;;20.90;16.80;;;;;;;;;;5030370;28;20094;-86
2021/12/13 13:21:30;;;;;;;22.92;16.48;;;;;;;;;;5037071;28;20028;-86
2021/12/13 13:24:00;;;;;;;24.38;17.17;;;;;;;;;;5051733;28;20041;-85
2021/12/13 13:26:28;;;;;;;21.70;15.80;;;;;;;;;;5026983;28;20049;-85
2021/12/13 13:28:56;;;;;;;21.40;15.82;;;;;;;;;;5054618;28;20076;-86
2021/12/13 13:31:28;;;;;;;22.27;15.63;;;;;;;;;;5043774;28;20037;-85
2021/12/13 13:34:00;;;;;;;21.77;14.85;;;;;;;;;;5029330;28;20068;-86
2021/12/13 13:36:35;;;;;;;22.05;15.18;;;;;;;;;;5026177;28;20045;-85
2021/12/13 13:39:16;;;;;;;20.33;14.93;;;;;;;;;;5034216;28;20037;-85
2021/12/13 13:41:44;;;;;;;22.52;14.80;;;;;;;;;;5044800;28;20099;-85
2021/12/13 13:44:11;;;;;;;23.27;16.05;;;;;;;;;;5042905;28;20123;-85
2021/12/13 13:46:38;;;;;;;21.90;14.93;;;;;;;;;;5039869;28;20040;-86
2021/12/13 13:49:05;;;;;;;21.83;14.35;;;;;;;;;;5031379;28;20062;-86
2021/12/13 13:51:34;;;;;;;20.00;14.13;;;;;;;;;;5030099;28;20040;-86
2021/12/13 13:54:00;;;;;;;21.38;15.07;;;;;;;;;;5058588;28;20041;-86
2021/12/13 13:56:31;;;;;;;22.20;15.35;;;;;;;;;;5042806;28;20025;-87
2021/12/13 13:59:03;;;;;;;20.17;14.73;;;;;;;;;;5031060;28;20080;-86
2021/12/13 14:01:32;;;;;;;19.17;14.70;;;;;;;;;;5038875;28;20138;-85
2021/12/13 14:04:03;;;;;;;21.00;14.65;;;;;;;;;;5042760;28;20043;-86
2021/12/13 14:06:35;;;;;;;21.98;14.05;;;;;;;;;;5036377;28;20063;-86
2021/12/13 14:09:09;;;;;;;19.90;14.35;;;;;;;;;;5035058;28;20037;-86
2021/12/13 14:11:46;;;;;;;19.00;13.95;;;;;;;;;;5025825;28;20033;-86
2021/12/13 14:14:15;;;;;;;20.38;13.57;;;;;;;;;;5053707;28;20120;-86
2021/12/13 14:16:49;;;;;;;24.25;14.90;;;;;;;;;;5022394;28;20045;-86
2021/12/13 14:19:25;;;;;;;19.40;13.35;;;;;;;;;;5022304;28;20045;-86
2021/12/13 14:21:51;;;;;;;20.05;13.38;;;;;;;;;;5048777;28;20551;-87
2021/12/13 14:24:17;;;;;;;19.30;13.85;;;;;;;;;;5049267;28;20037;-86
2021/12/13 14:26:43;;;;;;;21.45;15.68;;;;;;;;;;5043448;28;20058;-87
2021/12/13 14:29:10;;;;;;;21.05;14.73;;;;;;;;;;5045322;28;20043;-87
2021/12/13 14:31:38;;;;;;;23.50;14.93;;;;;;;;;;5042876;28;20079;-86
2021/12/13 14:34:08;;;;;;;19.58;14.30;;;;;;;;;;5048354;28;20040;-87
2021/12/13 14:36:34;;;;;;;23.02;14.02;;;;;;;;;;5036870;28;20048;-87
2021/12/13 14:39:19;;;;;;;18.65;14.65;;;;;;;;;;5021148;28;20123;-85
2021/12/13 14:41:51;;;;;;;20.55;14.73;;;;;;;;;;5036204;28;20491;-85
2021/12/13 14:44:22;;;;;;;22.08;14.88;;;;;;;;;;5052150;28;20479;-85
2021/12/13 14:46:50;;;;;;;23.30;15.80;;;;;;;;;;5053257;28;20052;-86
2021/12/13 14:49:19;;;;;;;25.77;17.35;;;;;;;;;;5060350;28;20089;-86
2021/12/13 14:51:53;;;;;;;23.40;16.17;;;;;;;;;;5045731;28;20085;-86
2021/12/13 14:54:21;;;;;;;20.75;16.15;;;;;;;;;;5040490;28;20510;-85
2021/12/13 14:56:55;;;;;;;24.20;16.70;;;;;;;;;;5053583;28;20438;-86
2021/12/13 14:59:22;;;;;;;22.30;15.45;;;;;;;;;;5050753;28;20170;-86
2021/12/13 15:01:58;;;;;;;;;;;;;;;;;;;;;